Time;durP1;ratioP1;P1;durP2;ratioP2;P2;SDS_P1;SDS_P2;PMS_P1;PMS_P2;Temp;Humidity;BMP_temperature;BMP_pressure;BME280_temperature;BME280_humidity;BME280_pressure;Samples;Min_cycle;Max_cycle;Signal;HPM_P1;HPM_P2
2023/04/17 00:00:30;;;;;;;39.35;26.80;;;8.00;92.40;;;;;;5073287;28;20024;-74
2023/04/17 00:02:56;;;;;;;34.45;24.08;;;8.00;92.30;;;;;;5073355;28;20044;-74
2023/04/17 00:05:25;;;;;;;37.92;25.77;;;8.00;92.40;;;;;;5072914;28;20060;-74
2023/04/17 00:07:50;;;;;;;33.35;23.63;;;8.00;92.30;;;;;;5072715;28;20021;-73
2023/04/17 00:10:16;;;;;;;32.78;22.55;;;7.90;92.20;;;;;;5072760;28;20089;-74
2023/04/17 00:12:41;;;;;;;34.85;22.58;;;8.00;92.30;;;;;;5073155;28;20107;-75
2023/04/17 00:15:07;;;;;;;36.13;23.75;;;8.00;92.30;;;;;;5073545;28;20024;-74
2023/04/17 00:17:33;;;;;;;28.48;20.63;;;8.00;92.10;;;;;;5073180;28;20591;-74
2023/04/17 00:19:59;;;;;;;25.70;19.42;;;8.00;92.10;;;;;;5073105;28;20028;-76
2023/04/17 00:22:25;;;;;;;32.50;22.55;;;8.00;92.10;;;;;;5073079;28;20020;-74
2023/04/17 00:24:50;;;;;;;33.05;22.13;;;8.00;92.20;;;;;;5073183;28;20052;-74
2023/04/17 00:27:16;;;;;;;32.63;21.23;;;7.90;92.10;;;;;;5073049;28;20016;-74
2023/04/17 00:29:41;;;;;;;28.67;20.58;;;7.80;92.20;;;;;;5071838;28;20503;-74
2023/04/17 00:32:07;;;;;;;29.95;20.98;;;7.80;92.50;;;;;;5072896;28;20037;-74
2023/04/17 00:34:32;;;;;;;25.27;18.50;;;7.80;92.70;;;;;;5072796;28;20102;-75
2023/04/17 00:36:58;;;;;;;22.08;15.90;;;7.70;92.80;;;;;;5072884;28;20032;-74
2023/04/17 00:39:24;;;;;;;23.83;17.33;;;7.80;92.90;;;;;;5072908;28;20084;-75
2023/04/17 00:41:49;;;;;;;24.05;17.42;;;7.80;92.80;;;;;;5072925;28;20074;-74
2023/04/17 00:44:15;;;;;;;22.85;16.05;;;7.80;92.80;;;;;;5073021;28;20033;-76
2023/04/17 00:46:40;;;;;;;23.10;16.63;;;7.70;92.90;;;;;;5072935;28;20021;-74
2023/04/17 00:49:07;;;;;;;20.95;16.20;;;7.70;92.80;;;;;;5072907;28;20165;-74
2023/04/17 00:51:33;;;;;;;21.27;16.20;;;7.70;92.90;;;;;;5072773;28;20032;-74
2023/04/17 00:53:59;;;;;;;21.70;16.13;;;7.70;92.90;;;;;;5072886;28;20028;-74
2023/04/17 00:56:26;;;;;;;23.83;17.40;;;7.80;92.90;;;;;;5072805;28;20029;-74
2023/04/17 00:58:52;;;;;;;26.77;18.40;;;7.80;92.80;;;;;;5072710;28;20028;-75
2023/04/17 01:01:18;;;;;;;22.83;16.70;;;7.80;93.60;;;;;;5072685;28;20427;-74
2023/04/17 01:03:43;;;;;;;25.35;17.63;;;7.80;92.80;;;;;;5072682;28;20035;-74
2023/04/17 01:06:10;;;;;;;22.92;16.30;;;7.90;92.70;;;;;;5072759;28;20487;-74
2023/04/17 01:08:41;;;;;;;23.67;17.75;;;7.90;92.60;;;;;;5072665;28;20401;-75
2023/04/17 01:11:07;;;;;;;21.20;16.60;;;7.80;92.10;;;;;;5072640;28;20035;-75
2023/04/17 01:13:33;;;;;;;20.50;15.98;;;7.80;92.40;;;;;;5072557;28;20051;-74
2023/04/17 01:15:58;;;;;;;22.08;16.67;;;7.80;92.50;;;;;;5071294;28;20384;-75
2023/04/17 01:18:24;;;;;;;20.40;15.23;;;7.80;92.30;;;;;;5072521;28;20358;-74
2023/04/17 01:20:49;;;;;;;21.48;15.48;;;7.80;92.40;;;;;;5074788;28;20020;-74
2023/04/17 01:23:15;;;;;;;20.13;15.48;;;7.80;92.40;;;;;;5076428;28;20035;-74
2023/04/17 01:25:41;;;;;;;18.73;14.50;;;7.90;92.50;;;;;;5076291;28;20461;-74
2023/04/17 01:28:06;;;;;;;18.80;13.90;;;7.80;92.20;;;;;;5076360;28;20032;-74
2023/04/17 01:30:32;;;;;;;19.80;15.00;;;7.80;92.30;;;;;;5076246;28;20054;-74
2023/04/17 01:32:57;;;;;;;20.40;14.43;;;7.80;92.20;;;;;;5076250;28;20029;-76
2023/04/17 01:35:23;;;;;;;18.55;14.70;;;7.80;92.30;;;;;;5076054;28;20485;-76
2023/04/17 01:37:49;;;;;;;18.13;14.00;;;7.80;92.20;;;;;;5076246;28;20028;-74
2023/04/17 01:40:14;;;;;;;21.48;15.93;;;7.90;92.40;;;;;;5076135;28;20028;-73
2023/04/17 01:42:40;;;;;;;20.17;15.68;;;7.80;92.10;;;;;;5076085;28;20183;-74
2023/04/17 01:45:06;;;;;;;19.90;15.48;;;7.70;92.20;;;;;;5075865;28;20021;-74
2023/04/17 01:47:32;;;;;;;21.15;15.52;;;7.80;93.00;;;;;;5076013;28;20030;-74
2023/04/17 01:49:57;;;;;;;19.38;14.63;;;7.80;92.20;;;;;;5076026;28;20443;-74
2023/04/17 01:52:23;;;;;;;21.70;16.48;;;7.80;92.20;;;;;;5075669;28;20029;-74
2023/04/17 01:54:48;;;;;;;21.60;16.15;;;7.90;92.10;;;;;;5075910;28;20104;-76
2023/04/17 01:57:14;;;;;;;22.27;16.77;;;7.80;91.80;;;;;;5075808;28;20032;-73
2023/04/17 01:59:39;;;;;;;24.38;17.80;;;7.80;91.80;;;;;;5075801;28;20086;-76
2023/04/17 02:02:05;;;;;;;23.58;16.30;;;7.80;91.70;;;;;;5074407;28;20362;-76
2023/04/17 02:04:30;;;;;;;27.60;18.70;;;7.90;91.90;;;;;;5075707;28;20526;-76
2023/04/17 02:06:56;;;;;;;24.60;17.98;;;7.80;91.70;;;;;;5075655;28;20036;-74
2023/04/17 02:09:21;;;;;;;27.95;19.65;;;7.80;91.80;;;;;;5075598;28;20017;-74
2023/04/17 02:11:47;;;;;;;23.13;17.83;;;7.80;91.80;;;;;;5075434;28;20029;-74
2023/04/17 02:14:12;;;;;;;25.63;18.23;;;7.90;92.10;;;;;;5075409;28;20016;-74
2023/04/17 02:16:44;;;;;;;24.33;17.73;;;7.90;91.90;;;;;;5075428;28;20044;-75
2023/04/17 02:19:10;;;;;;;24.08;17.88;;;7.90;91.80;;;;;;5074197;28;20047;-74
2023/04/17 02:21:36;;;;;;;22.92;17.30;;;7.80;91.70;;;;;;5075360;28;20089;-74
2023/04/17 02:24:02;;;;;;;24.27;18.52;;;7.90;91.90;;;;;;5075298;28;20109;-74
2023/04/17 02:26:27;;;;;;;27.02;18.50;;;7.90;91.80;;;;;;5075356;28;20059;-75
2023/04/17 02:28:53;;;;;;;27.05;19.77;;;7.90;91.80;;;;;;5075243;28;20032;-74
2023/04/17 02:31:19;;;;;;;25.90;18.73;;;7.90;91.70;;;;;;5074180;28;20047;-75
2023/04/17 02:33:44;;;;;;;24.02;18.20;;;7.90;91.80;;;;;;5075170;28;20021;-75
2023/04/17 02:36:10;;;;;;;25.42;19.55;;;7.90;91.70;;;;;;5075191;28;20484;-75
2023/04/17 02:38:36;;;;;;;23.38;18.38;;;7.90;91.50;;;;;;5075064;28;20460;-74
2023/04/17 02:41:03;;;;;;;26.98;18.70;;;7.90;91.60;;;;;;5075014;28;20017;-74
2023/04/17 02:43:28;;;;;;;26.48;19.25;;;7.90;91.50;;;;;;5075060;28;20353;-74
2023/04/17 02:45:54;;;;;;;25.52;19.70;;;7.80;91.50;;;;;;5074943;28;20079;-75
2023/04/17 02:48:19;;;;;;;23.65;18.15;;;7.80;91.80;;;;;;5074778;28;20540;-75
2023/04/17 02:50:45;;;;;;;26.33;18.63;;;7.70;91.90;;;;;;5074621;28;20497;-76
2023/04/17 02:53:11;;;;;;;24.63;18.80;;;7.70;91.90;;;;;;5073515;28;20480;-75
2023/04/17 02:55:36;;;;;;;24.73;16.98;;;7.70;91.90;;;;;;5074841;28;20112;-75
2023/04/17 02:58:02;;;;;;;24.10;18.30;;;7.70;92.10;;;;;;5074518;28;20422;-75
2023/04/17 03:00:28;;;;;;;25.30;18.10;;;7.70;92.20;;;;;;5074620;28;20483;-75
2023/04/17 03:02:54;;;;;;;24.38;18.65;;;7.70;92.30;;;;;;5074614;28;20066;-74
2023/04/17 03:05:22;;;;;;;23.15;17.15;;;7.70;92.10;;;;;;5074561;28;20102;-75
2023/04/17 03:07:49;;;;;;;24.73;18.90;;;7.70;92.20;;;;;;5074367;28;20111;-75
2023/04/17 03:10:15;;;;;;;27.85;18.63;;;7.80;92.10;;;;;;5074463;28;20029;-75
2023/04/17 03:12:40;;;;;;;22.77;16.85;;;7.70;92.20;;;;;;5074543;28;20195;-75
2023/04/17 03:15:07;;;;;;;22.42;16.05;;;7.60;92.30;;;;;;5074206;28;20031;-75
2023/04/17 03:17:32;;;;;;;25.25;18.67;;;7.60;92.30;;;;;;5074263;28;20032;-75
2023/04/17 03:19:58;;;;;;;22.40;17.02;;;7.70;92.40;;;;;;5074118;28;20046;-75
2023/04/17 03:22:24;;;;;;;23.60;17.75;;;7.60;92.30;;;;;;5074258;28;20021;-75
2023/04/17 03:24:49;;;;;;;24.13;17.63;;;7.70;92.30;;;;;;5074218;28;20074;-75
2023/04/17 03:27:15;;;;;;;22.40;16.58;;;7.70;92.30;;;;;;5072983;28;20055;-75
2023/04/17 03:29:40;;;;;;;24.10;17.70;;;7.60;92.30;;;;;;5073997;28;20020;-75
2023/04/17 03:32:06;;;;;;;24.15;18.17;;;7.60;92.20;;;;;;5073888;28;20072;-75
2023/04/17 03:34:31;;;;;;;26.35;18.38;;;7.60;92.20;;;;;;5073630;28;20048;-75
2023/04/17 03:36:57;;;;;;;23.33;17.67;;;7.60;92.20;;;;;;5073879;28;20558;-75
2023/04/17 03:39:23;;;;;;;25.67;18.70;;;7.60;92.10;;;;;;5073871;28;20020;-75
2023/04/17 03:41:48;;;;;;;23.73;17.50;;;7.60;92.40;;;;;;5073863;28;20051;-75
2023/04/17 03:44:16;;;;;;;24.48;17.13;;;7.70;92.40;;;;;;5073765;28;20100;-75
2023/04/17 03:46:41;;;;;;;24.48;17.90;;;7.70;92.40;;;;;;5073742;28;20028;-75
2023/04/17 03:49:07;;;;;;;24.98;17.10;;;7.70;92.40;;;;;;5073846;28;20046;-75
2023/04/17 03:51:32;;;;;;;19.00;14.18;;;7.70;92.10;;;;;;5073615;28;20385;-75
2023/04/17 03:53:58;;;;;;;20.13;13.32;;;7.70;92.00;;;;;;5073480;28;20054;-75
2023/04/17 03:56:24;;;;;;;17.65;13.02;;;7.60;92.00;;;;;;5073384;28;20122;-75
2023/04/17 03:58:50;;;;;;;18.88;14.13;;;7.60;92.10;;;;;;5073473;28;20024;-75
2023/04/17 04:01:15;;;;;;;17.45;12.40;;;7.70;92.00;;;;;;5072131;28;20020;-74
2023/04/17 04:03:41;;;;;;;18.00;13.57;;;7.70;92.10;;;;;;5073366;28;20021;-75
2023/04/17 04:06:06;;;;;;;17.88;12.95;;;7.70;92.00;;;;;;5073385;28;20384;-75
2023/04/17 04:08:32;;;;;;;18.38;13.93;;;7.70;91.80;;;;;;5073171;28;20028;-74
2023/04/17 04:10:59;;;;;;;19.35;14.15;;;7.80;91.70;;;;;;5073148;28;20489;-75
2023/04/17 04:13:25;;;;;;;19.30;14.10;;;7.80;91.70;;;;;;5072819;28;20024;-75
2023/04/17 04:15:51;;;;;;;22.80;15.35;;;7.70;91.70;;;;;;5073020;28;20379;-75
2023/04/17 04:18:16;;;;;;;22.30;15.55;;;7.70;91.50;;;;;;5073134;28;20033;-75
2023/04/17 04:20:42;;;;;;;20.20;14.10;;;7.60;91.60;;;;;;5073047;28;20537;-75
2023/04/17 04:23:07;;;;;;;20.75;14.32;;;7.60;91.80;;;;;;5073196;28;20361;-75
2023/04/17 04:25:33;;;;;;;16.38;11.98;;;7.60;91.80;;;;;;5073225;28;20017;-75
2023/04/17 04:28:00;;;;;;;16.85;11.80;;;7.70;91.90;;;;;;5072783;28;20533;-75
2023/04/17 04:30:26;;;;;;;15.25;11.27;;;7.70;91.60;;;;;;5072400;28;20067;-75
2023/04/17 04:32:52;;;;;;;13.48;9.82;;;7.70;91.60;;;;;;5073063;28;20028;-75
2023/04/17 04:35:17;;;;;;;14.05;11.00;;;7.70;91.50;;;;;;5071695;28;20090;-75
2023/04/17 04:37:45;;;;;;;16.08;11.77;;;7.70;91.20;;;;;;5072852;28;20035;-75
2023/04/17 04:40:11;;;;;;;16.83;13.30;;;7.80;91.20;;;;;;5073197;28;20074;-75
2023/04/17 04:42:48;;;;;;;19.15;14.27;;;7.70;91.20;;;;;;5073121;28;20059;-75
2023/04/17 04:45:14;;;;;;;16.35;12.80;;;7.80;91.10;;;;;;5072997;28;20028;-75
2023/04/17 04:47:40;;;;;;;20.40;15.70;;;7.70;91.10;;;;;;5072843;28;20028;-75
2023/04/17 04:50:06;;;;;;;23.70;16.85;;;7.70;91.80;;;;;;5072838;28;20033;-74
2023/04/17 04:52:32;;;;;;;22.80;15.48;;;7.70;91.20;;;;;;5072571;28;20140;-74
2023/04/17 04:54:58;;;;;;;21.77;17.40;;;7.70;91.40;;;;;;5072657;28;20048;-74
2023/04/17 04:57:23;;;;;;;25.67;17.52;;;7.60;91.50;;;;;;5072906;28;20055;-74
2023/04/17 04:59:49;;;;;;;27.13;19.02;;;7.60;91.50;;;;;;5072547;28;20059;-74
2023/04/17 05:02:15;;;;;;;26.20;19.95;;;7.70;91.50;;;;;;5072580;28;20017;-74
2023/04/17 05:04:40;;;;;;;29.58;20.13;;;7.60;91.40;;;;;;5072703;28;20029;-74
2023/04/17 05:07:06;;;;;;;24.67;18.30;;;7.60;91.50;;;;;;5072607;28;20112;-74
2023/04/17 05:09:32;;;;;;;26.63;20.40;;;7.70;91.60;;;;;;5072565;28;20024;-74
2023/04/17 05:11:57;;;;;;;26.52;19.80;;;7.70;91.40;;;;;;5072728;28;20086;-74
2023/04/17 05:14:23;;;;;;;27.38;19.52;;;7.70;91.40;;;;;;5072364;28;20033;-75
2023/04/17 05:16:49;;;;;;;29.10;20.20;;;7.70;91.40;;;;;;5072329;28;20103;-73
2023/04/17 05:19:15;;;;;;;27.23;20.02;;;7.70;91.10;;;;;;5072055;28;20052;-76
2023/04/17 05:21:40;;;;;;;28.15;20.35;;;7.70;91.00;;;;;;5072374;28;20052;-74
2023/04/17 05:24:06;;;;;;;28.67;21.20;;;7.70;91.00;;;;;;5072224;28;20032;-73
2023/04/17 05:26:32;;;;;;;34.17;22.17;;;7.70;91.20;;;;;;5072112;28;20037;-74
2023/04/17 05:28:57;;;;;;;27.48;20.10;;;7.70;91.20;;;;;;5072346;28;20381;-76
2023/04/17 05:31:23;;;;;;;28.15;19.67;;;7.70;91.10;;;;;;5072169;28;20112;-75
2023/04/17 05:33:48;;;;;;;31.20;20.75;;;7.70;91.20;;;;;;5072526;28;20016;-76
2023/04/17 05:36:14;;;;;;;25.42;18.50;;;7.70;91.20;;;;;;5072301;28;20052;-75
2023/04/17 05:38:39;;;;;;;26.80;19.77;;;7.80;90.90;;;;;;5072278;28;20016;-76
2023/04/17 05:41:08;;;;;;;28.00;19.40;;;7.80;90.80;;;;;;5072266;28;20103;-74
2023/04/17 05:43:34;;;;;;;29.95;17.70;;;7.80;90.80;;;;;;5072240;28;20024;-76
2023/04/17 05:45:59;;;;;;;32.15;15.02;;;7.90;91.40;;;;;;5072049;28;20035;-78
2023/04/17 05:48:25;;;;;;;29.67;16.70;;;8.40;96.50;;;;;;5071873;28;20350;-77
2023/04/17 05:50:50;;;;;;;22.67;14.88;;;8.70;95.60;;;;;;5070619;28;20051;-76
2023/04/17 05:53:16;;;;;;;19.77;14.10;;;9.00;93.00;;;;;;5071815;28;20524;-77
2023/04/17 05:55:42;;;;;;;15.98;12.95;;;9.20;90.90;;;;;;5071747;28;20024;-77
2023/04/17 05:58:07;;;;;;;14.23;11.77;;;9.50;87.50;;;;;;5071808;28;20029;-76
2023/04/17 06:00:33;;;;;;;15.32;11.73;;;9.70;84.90;;;;;;5071788;28;20024;-77
2023/04/17 06:03:00;;;;;;;15.80;12.77;;;9.80;83.10;;;;;;5071859;28;20492;-77
2023/04/17 06:05:26;;;;;;;14.68;11.30;;;10.00;82.30;;;;;;5071745;28;20056;-76
2023/04/17 06:07:51;;;;;;;12.15;10.23;;;10.20;80.70;;;;;;5074468;28;20032;-76
2023/04/17 06:10:17;;;;;;;11.65;10.05;;;10.40;80.10;;;;;;5075385;28;20036;-77
2023/04/17 06:12:43;;;;;;;11.77;9.27;;;10.60;78.50;;;;;;5075382;28;20035;-76
2023/04/17 06:15:08;;;;;;;15.00;11.73;;;10.70;78.40;;;;;;5075415;28;20354;-75
2023/04/17 06:17:36;;;;;;;13.18;9.93;;;10.80;77.10;;;;;;5075368;28;20089;-76
2023/04/17 06:20:03;;;;;;;13.88;11.23;;;10.50;77.40;;;;;;5076003;28;20080;-76
2023/04/17 06:22:29;;;;;;;12.20;9.60;;;10.20;78.60;;;;;;5077069;28;20020;-75
2023/04/17 06:24:55;;;;;;;12.88;10.13;;;9.90;79.30;;;;;;5075935;28;20027;-75
2023/04/17 06:27:20;;;;;;;13.88;10.27;;;9.60;80.10;;;;;;5073781;28;20033;-75
2023/04/17 06:29:46;;;;;;;19.48;13.00;;;9.40;81.30;;;;;;5076266;28;20035;-74
2023/04/17 06:32:11;;;;;;;18.13;12.90;;;9.20;82.60;;;;;;5083648;28;20038;-75
2023/04/17 06:34:37;;;;;;;15.82;12.38;;;9.00;83.70;;;;;;5082419;28;20515;-77
2023/04/17 06:37:03;;;;;;;16.65;12.40;;;8.80;84.40;;;;;;5077204;28;20028;-76
2023/04/17 06:39:30;;;;;;;18.75;13.85;;;8.70;84.80;;;;;;5078674;28;20024;-74
2023/04/17 06:41:57;;;;;;;19.38;15.00;;;8.70;85.40;;;;;;5079112;28;20372;-75
2023/04/17 06:44:22;;;;;;;18.13;13.93;;;8.50;86.20;;;;;;5075210;28;20020;-76
2023/04/17 06:46:51;;;;;;;23.90;16.65;;;8.50;86.90;;;;;;5075174;28;20021;-76
2023/04/17 06:49:17;;;;;;;19.58;14.40;;;8.40;86.90;;;;;;5074965;28;20408;-76
2023/04/17 06:51:44;;;;;;;17.77;13.55;;;8.40;87.30;;;;;;5074570;28;20115;-76
2023/04/17 06:54:10;;;;;;;19.77;15.02;;;8.40;87.30;;;;;;5074615;28;20043;-75
2023/04/17 06:56:36;;;;;;;21.05;15.80;;;8.50;87.50;;;;;;5074669;28;20492;-75
2023/04/17 06:59:01;;;;;;;23.77;16.02;;;8.50;87.80;;;;;;5074521;28;20032;-77
2023/04/17 07:01:28;;;;;;;21.17;15.88;;;8.30;88.40;;;;;;5074424;28;20013;-77
2023/04/17 07:03:53;;;;;;;20.83;15.43;;;8.30;88.60;;;;;;5074112;28;20021;-77
2023/04/17 07:06:19;;;;;;;21.75;15.55;;;8.40;88.60;;;;;;5074443;28;20020;-77
2023/04/17 07:08:44;;;;;;;22.45;15.60;;;8.50;88.40;;;;;;5074356;28;20108;-77
2023/04/17 07:11:10;;;;;;;21.00;14.70;;;8.50;88.10;;;;;;5073984;28;20078;-77
2023/04/17 07:13:36;;;;;;;20.00;13.77;;;8.50;88.00;;;;;;5074204;28;20077;-75
2023/04/17 07:16:02;;;;;;;19.75;14.60;;;8.50;87.80;;;;;;5074020;28;20477;-76
2023/04/17 07:18:30;;;;;;;20.42;14.55;;;8.50;88.00;;;;;;5073925;28;20013;-76
2023/04/17 07:20:56;;;;;;;17.75;13.02;;;8.50;88.00;;;;;;5074034;28;20025;-75
2023/04/17 07:23:22;;;;;;;21.35;15.95;;;8.50;87.80;;;;;;5074060;28;20043;-76
2023/04/17 07:25:48;;;;;;;18.67;13.70;;;8.50;87.80;;;;;;5073835;28;20077;-74
2023/04/17 07:28:13;;;;;;;20.05;14.52;;;8.50;88.00;;;;;;5073652;28;20032;-77
2023/04/17 07:30:42;;;;;;;19.48;14.02;;;8.50;88.10;;;;;;5073726;28;20120;-76
2023/04/17 07:33:08;;;;;;;18.85;13.52;;;8.40;87.80;;;;;;5073651;28;20025;-77
2023/04/17 07:35:34;;;;;;;21.75;15.45;;;8.30;88.00;;;;;;5072287;28;20094;-76
2023/04/17 07:38:02;;;;;;;17.77;12.18;;;8.30;88.20;;;;;;5073473;28;20024;-77
2023/04/17 07:40:28;;;;;;;20.08;15.45;;;8.30;88.30;;;;;;5073155;28;20025;-78
2023/04/17 07:42:55;;;;;;;21.92;15.82;;;8.30;88.20;;;;;;5073446;28;20039;-76
2023/04/17 07:45:20;;;;;;;21.73;16.00;;;8.20;88.40;;;;;;5073532;28;20013;-76
2023/04/17 07:47:46;;;;;;;21.73;15.35;;;8.20;88.60;;;;;;5073437;28;20035;-76
2023/04/17 07:50:12;;;;;;;20.15;14.00;;;8.20;88.70;;;;;;5073544;28;20103;-78
2023/04/17 07:52:38;;;;;;;18.27;12.40;;;8.30;89.00;;;;;;5071959;28;20077;-77
2023/04/17 07:55:03;;;;;;;16.75;12.45;;;8.50;90.00;;;;;;5085371;28;20032;-75
2023/04/17 07:57:29;;;;;;;16.67;12.15;;;8.60;89.90;;;;;;5093451;28;20032;-76
2023/04/17 07:59:55;;;;;;;13.70;10.68;;;8.70;89.40;;;;;;5083661;28;20012;-76
2023/04/17 08:02:21;;;;;;;18.80;12.57;;;8.90;89.50;;;;;;5081211;28;20032;-77
2023/04/17 08:04:46;;;;;;;17.95;12.80;;;8.90;88.70;;;;;;5089586;28;20020;-77
2023/04/17 08:07:13;;;;;;;14.88;11.38;;;9.00;86.80;;;;;;5093365;28;20032;-77
2023/04/17 08:09:38;;;;;;;12.63;10.50;;;9.00;86.40;;;;;;5093277;28;20436;-77
2023/04/17 08:12:05;;;;;;;13.68;10.60;;;9.20;87.40;;;;;;5092975;28;20190;-75
2023/04/17 08:14:30;;;;;;;14.90;10.38;;;9.50;86.80;;;;;;5093066;28;20030;-73
2023/04/17 08:16:56;;;;;;;12.90;9.60;;;9.70;86.50;;;;;;5093106;28;20102;-76
2023/04/17 08:19:21;;;;;;;10.60;7.80;;;10.00;85.60;;;;;;5092896;28;20513;-73
2023/04/17 08:21:47;;;;;;;11.52;8.32;;;10.20;83.40;;;;;;5093005;28;20020;-73
2023/04/17 08:24:13;;;;;;;12.30;9.00;;;10.30;82.90;;;;;;5093102;28;20016;-74
2023/04/17 08:26:38;;;;;;;10.98;8.20;;;10.40;81.80;;;;;;5092828;28;20028;-74
2023/04/17 08:29:04;;;;;;;13.38;8.75;;;10.40;81.40;;;;;;5092114;28;20020;-74
2023/04/17 08:31:30;;;;;;;9.07;7.70;;;10.50;82.20;;;;;;5092714;28;20368;-77
2023/04/17 08:33:57;;;;;;;9.70;7.50;;;10.60;81.40;;;;;;5092802;28;20024;-76
2023/04/17 08:36:22;;;;;;;9.38;7.03;;;10.70;81.00;;;;;;5092636;28;20189;-76
2023/04/17 08:38:48;;;;;;;9.90;6.75;;;10.70;80.40;;;;;;5092898;28;20074;-73
2023/04/17 08:41:23;;;;;;;9.57;7.38;;;10.80;80.00;;;;;;5092594;28;20016;-76
2023/04/17 08:43:52;;;;;;;7.30;5.95;;;10.70;80.10;;;;;;5092759;28;20028;-75
2023/04/17 08:46:20;;;;;;;8.90;6.78;;;10.70;80.00;;;;;;5092750;28;20020;-75
2023/04/17 08:48:46;;;;;;;8.98;6.10;;;10.70;80.40;;;;;;5091719;28;20459;-75
2023/04/17 08:51:14;;;;;;;8.00;6.20;;;10.70;81.10;;;;;;5092578;28;20061;-74
2023/04/17 08:53:40;;;;;;;7.38;5.88;;;10.80;80.70;;;;;;5092529;28;20027;-78
2023/04/17 08:56:06;;;;;;;7.57;5.90;;;10.90;80.50;;;;;;5092721;28;20020;-75
2023/04/17 08:58:32;;;;;;;5.90;5.25;;;10.90;79.60;;;;;;5092567;28;20020;-75
2023/04/17 09:01:10;;;;;;;8.18;5.90;;;10.90;79.00;;;;;;5092227;28;20028;-74
2023/04/17 09:03:43;;;;;;;14.13;9.90;;;10.80;79.00;;;;;;5092598;28;20110;-75
2023/04/17 09:06:12;;;;;;;13.32;9.23;;;10.70;79.40;;;;;;5092358;28;20491;-75
2023/04/17 09:08:52;;;;;;;4.70;3.78;;;10.70;79.60;;;;;;5091059;28;20043;-75
2023/04/17 09:11:18;;;;;;;4.75;3.83;;;10.40;78.60;;;;;;5092431;28;20077;-76
2023/04/17 09:13:44;;;;;;;6.22;4.20;;;10.20;79.60;;;;;;5092133;28;20476;-75
2023/04/17 09:16:12;;;;;;;6.85;4.60;;;10.10;80.30;;;;;;5092401;28;20028;-75
2023/04/17 09:18:39;;;;;;;5.90;4.63;;;10.00;80.80;;;;;;5092595;28;20433;-75
2023/04/17 09:21:06;;;;;;;4.90;4.28;;;9.90;81.50;;;;;;5092277;28;20085;-74
2023/04/17 09:23:44;;;;;;;5.97;3.97;;;9.70;82.10;;;;;;5092432;28;20095;-75
2023/04/17 09:26:14;;;;;;;5.63;4.35;;;9.50;82.60;;;;;;5092151;28;20027;-74
2023/04/17 09:28:42;;;;;;;6.25;4.68;;;9.40;82.70;;;;;;5092196;28;20031;-76
2023/04/17 09:31:17;;;;;;;6.47;4.82;;;9.30;83.80;;;;;;5092178;28;20063;-76
2023/04/17 09:34:19;;;;;;;8.57;5.47;;;9.30;83.80;;;;;;5092385;28;20024;-76
2023/04/17 09:36:45;;;;;;;8.05;5.35;;;9.20;85.20;;;;;;5049938;28;20037;-76
2023/04/17 09:39:23;;;;;;;5.40;4.57;;;9.10;85.80;;;;;;5080493;28;20052;-75
2023/04/17 09:41:49;;;;;;;6.63;5.03;;;9.20;85.60;;;;;;5080898;28;20048;-75
2023/04/17 09:44:25;;;;;;;7.20;5.47;;;9.30;85.90;;;;;;5085267;28;20020;-75
2023/04/17 09:46:52;;;;;;;6.43;5.05;;;9.30;85.50;;;;;;5083978;28;20016;-75
2023/04/17 09:49:37;;;;;;;13.10;9.45;;;9.30;85.50;;;;;;5082166;28;20017;-76
2023/04/17 09:52:03;;;;;;;16.77;11.13;;;9.40;85.60;;;;;;5075709;28;20399;-76
2023/04/17 09:54:32;;;;;;;10.13;6.55;;;9.50;85.40;;;;;;5075115;28;20064;-76
2023/04/17 09:56:58;;;;;;;6.13;4.80;;;9.70;85.00;;;;;;5075752;28;20036;-76
2023/04/17 09:59:24;;;;;;;6.10;4.93;;;9.80;84.60;;;;;;5078184;28;20028;-76
2023/04/17 10:01:52;;;;;;;5.20;3.92;;;10.10;84.40;;;;;;5085463;28;20024;-76
2023/04/17 10:04:18;;;;;;;5.43;4.55;;;10.20;83.80;;;;;;5080034;28;20020;-75
2023/04/17 10:06:44;;;;;;;5.75;4.18;;;10.30;82.80;;;;;;5084190;28;20020;-75
2023/04/17 10:09:10;;;;;;;5.55;3.97;;;10.30;82.20;;;;;;5083872;28;20040;-74
2023/04/17 10:11:38;;;;;;;3.80;3.00;;;10.30;82.00;;;;;;5083922;28;20051;-74
2023/04/17 10:14:16;;;;;;;4.68;3.70;;;10.20;82.00;;;;;;5084296;28;20020;-75
2023/04/17 10:16:42;;;;;;;4.22;3.30;;;10.10;82.70;;;;;;5081667;28;20025;-75
2023/04/17 10:19:28;;;;;;;4.78;3.22;;;9.90;83.30;;;;;;5083831;28;20023;-74
2023/04/17 10:22:18;;;;;;;4.90;3.88;;;9.80;84.00;;;;;;5084772;28;20016;-76
2023/04/17 10:24:50;;;;;;;5.88;4.53;;;9.80;84.50;;;;;;5082463;28;20074;-73
2023/04/17 10:27:25;;;;;;;6.05;4.80;;;9.70;85.60;;;;;;5085386;28;20012;-74
2023/04/17 10:29:55;;;;;;;4.97;4.47;;;9.70;85.40;;;;;;5084677;28;20029;-74
2023/04/17 10:32:27;;;;;;;7.50;4.85;;;9.80;86.30;;;;;;5083811;28;20028;-76
2023/04/17 10:35:02;;;;;;;7.07;4.85;;;9.90;85.70;;;;;;5094801;28;20043;-76
2023/04/17 10:37:45;;;;;;;6.45;4.82;;;10.00;85.00;;;;;;5094813;28;20372;-76
2023/04/17 10:40:13;;;;;;;7.28;4.68;;;10.10;84.80;;;;;;5094789;28;20027;-76
2023/04/17 10:42:39;;;;;;;6.07;4.53;;;10.20;84.90;;;;;;5094780;28;20028;-76
2023/04/17 10:45:17;;;;;;;7.57;4.15;;;10.20;84.30;;;;;;5094795;28;20030;-76
2023/04/17 10:47:44;;;;;;;5.53;4.50;;;10.20;84.50;;;;;;5093075;28;20126;-76
2023/04/17 10:50:10;;;;;;;4.18;3.53;;;10.30;83.70;;;;;;5094376;28;20103;-75
2023/04/17 10:52:37;;;;;;;4.95;4.15;;;10.20;82.80;;;;;;5093420;28;20119;-74
2023/04/17 10:55:06;;;;;;;6.47;5.07;;;10.10;83.50;;;;;;5094400;28;20064;-76
2023/04/17 10:57:58;;;;;;;9.57;6.50;;;10.10;83.60;;;;;;5093195;28;20376;-77
2023/04/17 11:00:34;;;;;;;8.82;6.57;;;9.90;83.90;;;;;;5094170;28;20425;-78
2023/04/17 11:03:00;;;;;;;9.05;6.65;;;9.90;85.10;;;;;;5092510;28;20035;-77
2023/04/17 11:05:26;;;;;;;8.55;6.85;;;10.00;84.70;;;;;;5097040;28;20064;-77
2023/04/17 11:07:52;;;;;;;9.50;6.55;;;10.20;84.00;;;;;;5095271;28;20051;-75
2023/04/17 11:10:19;;;;;;;10.32;6.30;;;10.30;84.00;;;;;;5094675;28;20095;-75
2023/04/17 11:12:52;;;;;;;9.23;7.07;;;10.50;83.10;;;;;;5094678;28;20127;-75
2023/04/17 11:15:24;;;;;;;10.20;7.78;;;10.50;82.90;;;;;;5094689;28;20024;-75
2023/04/17 11:17:50;;;;;;;33.40;24.00;;;10.50;82.80;;;;;;5094522;28;20052;-75
2023/04/17 11:20:19;;;;;;;42.47;27.00;;;10.40;83.80;;;;;;5094600;28;20081;-76
2023/04/17 11:22:46;;;;;;;16.45;12.20;;;10.20;83.60;;;;;;5094462;28;20022;-74
2023/04/17 11:25:22;;;;;;;16.35;13.20;;;10.30;84.30;;;;;;5094338;28;20020;-75
2023/04/17 11:27:57;;;;;;;8.18;5.40;;;10.20;84.20;;;;;;5094317;28;20028;-76
2023/04/17 11:30:30;;;;;;;6.65;5.35;;;10.30;83.70;;;;;;5094359;28;20032;-75
2023/04/17 11:32:58;;;;;;;8.15;6.13;;;10.30;83.30;;;;;;5094507;28;20036;-75
2023/04/17 11:35:31;;;;;;;9.05;6.68;;;10.30;83.70;;;;;;5094204;28;20488;-75
2023/04/17 11:38:05;;;;;;;8.57;6.38;;;10.30;83.80;;;;;;5094092;28;20109;-74
2023/04/17 11:40:31;;;;;;;7.28;5.03;;;10.40;84.00;;;;;;5092910;28;20021;-76
2023/04/17 11:42:56;;;;;;;5.28;4.47;;;10.40;83.90;;;;;;5094170;28;20085;-75
2023/04/17 11:45:22;;;;;;;6.00;4.60;;;10.50;84.20;;;;;;5094171;28;20035;-76
2023/04/17 11:47:47;;;;;;;4.93;3.42;;;10.50;84.40;;;;;;5094205;28;20028;-76
2023/04/17 11:50:16;;;;;;;4.25;3.65;;;10.60;84.20;;;;;;5087494;28;20103;-75
2023/04/17 11:52:42;;;;;;;4.32;3.75;;;10.60;83.90;;;;;;5093766;28;20032;-75
2023/04/17 11:55:08;;;;;;;4.10;3.35;;;10.70;83.50;;;;;;5090442;28;20085;-74
2023/04/17 11:57:42;;;;;;;4.13;3.47;;;10.60;81.50;;;;;;5083933;28;20102;-75
2023/04/17 12:00:12;;;;;;;3.88;3.58;;;10.60;81.60;;;;;;5073380;28;20099;-74
2023/04/17 12:02:38;;;;;;;5.03;3.60;;;10.60;81.80;;;;;;5073104;28;20078;-74
2023/04/17 12:05:14;;;;;;;4.75;3.97;;;10.60;81.20;;;;;;5072416;28;20028;-75
2023/04/17 12:07:40;;;;;;;4.38;3.58;;;10.60;81.00;;;;;;5073036;28;20016;-76
2023/04/17 12:10:06;;;;;;;3.95;3.40;;;10.70;80.80;;;;;;5071808;28;20024;-80
2023/04/17 12:12:32;;;;;;;5.32;4.13;;;10.80;80.80;;;;;;5072954;28;20726;-82
2023/04/17 12:14:59;;;;;;;4.35;3.65;;;10.90;80.60;;;;;;5073225;28;20055;-77
2023/04/17 12:17:25;;;;;;;15.00;10.35;;;11.10;80.40;;;;;;5072929;28;20469;-75
2023/04/17 12:19:52;;;;;;;7.75;4.90;;;11.30;79.50;;;;;;5072934;28;20021;-75
2023/04/17 12:22:18;;;;;;;5.90;4.32;;;11.40;79.00;;;;;;5072710;28;20042;-74
2023/04/17 12:24:43;;;;;;;4.88;3.92;;;11.50;77.70;;;;;;5072628;28;20501;-74
2023/04/17 12:27:09;;;;;;;7.38;5.22;;;11.40;77.30;;;;;;5072799;28;20577;-74
2023/04/17 12:29:35;;;;;;;4.63;3.88;;;11.40;79.10;;;;;;5073012;28;20024;-74
2023/04/17 12:32:00;;;;;;;4.55;3.50;;;11.60;77.60;;;;;;5072895;28;20511;-76
2023/04/17 12:34:26;;;;;;;3.58;3.08;;;11.80;77.10;;;;;;5072691;28;20099;-75
2023/04/17 12:36:52;;;;;;;3.28;2.78;;;11.90;76.20;;;;;;5072808;28;20448;-75
2023/04/17 12:39:18;;;;;;;3.72;3.33;;;12.20;75.80;;;;;;5072877;28;20027;-76